createdAt,value
2022-10-05T00:02:18.323Z,99132.75
2022-10-05T00:04:46.442Z,99135.19
2022-10-05T00:07:15.265Z,99130.41
2022-10-05T00:09:43.740Z,99127.88
2022-10-05T00:12:15.867Z,99126.66
2022-10-05T00:14:44.860Z,99125.66
2022-10-05T00:17:17.639Z,99125.97
2022-10-05T00:19:46.486Z,99125.16
2022-10-05T00:22:18.890Z,99122.53
2022-10-05T00:24:47.575Z,99117.13
2022-10-05T00:27:17.807Z,99116.91
2022-10-05T00:29:46.254Z,99108.72
2022-10-05T00:32:14.377Z,99100.13
2022-10-05T00:34:43.864Z,99104.66
2022-10-05T00:37:12.522Z,99104.56
2022-10-05T00:39:41.468Z,99102.75
2022-10-05T00:42:22.367Z,99098.16
2022-10-05T00:44:54.018Z,99104.88
2022-10-05T00:47:28.479Z,99103.16
2022-10-05T00:50:11.324Z,99094.19
2022-10-05T00:52:45.786Z,99108.78
2022-10-05T00:55:16.682Z,99113.34
2022-10-05T00:57:49.564Z,99112.13
2022-10-05T01:00:19.736Z,99120.78
2022-10-05T01:02:52.966Z,99125.94
2022-10-05T01:05:28.703Z,99126.84
2022-10-05T01:08:04.316Z,99121.78
2022-10-05T01:10:36.498Z,99122.94
2022-10-05T01:13:09.679Z,99121.22
2022-10-05T01:15:40.585Z,99119.81
2022-10-05T01:18:13.205Z,99114.38
2022-10-05T01:20:45.399Z,99111.50
2022-10-05T01:23:31.275Z,99102.72
2022-10-05T01:26:08.234Z,99093.66
2022-10-05T01:28:39.239Z,99096.91
2022-10-05T01:31:10.485Z,99090.28
2022-10-05T01:33:43.098Z,99093.66
2022-10-05T01:36:16.346Z,99085.16
2022-10-05T01:38:52.824Z,99084.22
2022-10-05T01:41:28.046Z,99091.19
2022-10-05T01:44:01.260Z,99081.75
2022-10-05T01:46:33.656Z,99081.47
2022-10-05T01:49:09.118Z,99071.81
2022-10-05T01:51:41.583Z,99079.28
2022-10-05T01:54:16.599Z,99072.22
2022-10-05T01:56:48.156Z,99070.63
2022-10-05T01:59:21.731Z,99069.47
2022-10-05T02:01:53.792Z,99066.47
2022-10-05T02:04:56.417Z,99066.56
2022-10-05T02:07:17.820Z,99063.84
2022-10-05T02:09:47.755Z,99065.72
2022-10-05T02:12:18.989Z,99072.94
2022-10-05T02:14:51.834Z,99072.75
2022-10-05T02:17:22.941Z,99068.19
2022-10-05T02:19:53.277Z,99061.75
2022-10-05T02:22:27.562Z,99069.22
2022-10-05T02:24:57.931Z,99073.56
2022-10-05T02:27:30.830Z,99063.50
2022-10-05T02:30:02.355Z,99067.31
2022-10-05T02:32:37.472Z,99076.78
2022-10-05T02:35:13.360Z,99083.16
2022-10-05T02:37:44.518Z,99079.91
2022-10-05T02:40:18.552Z,99088.16
2022-10-05T02:42:54.579Z,99093.88
2022-10-05T02:45:31.144Z,99102.44
2022-10-05T02:48:05.867Z,99112.50
2022-10-05T02:50:35.895Z,99112.38
2022-10-05T02:53:09.412Z,99107.44
2022-10-05T02:55:38.997Z,99095.59
2022-10-05T02:58:08.828Z,99105.53
2022-10-05T03:00:43.118Z,99111.22
2022-10-05T03:03:14.200Z,99097.91
2022-10-05T03:05:45.819Z,99099.31
2022-10-05T03:08:18.726Z,99101.31
2022-10-05T03:10:50.767Z,99096.63
2022-10-05T03:13:24.914Z,99093.41
2022-10-05T03:16:02.960Z,99076.91
2022-10-05T03:18:42.869Z,99086.91
2022-10-05T03:21:19.019Z,99080.78
2022-10-05T03:23:54.226Z,99079.97
2022-10-05T03:26:30.756Z,99061.91
2022-10-05T03:29:01.050Z,99054.03
2022-10-05T03:31:33.844Z,99047.97
2022-10-05T03:34:07.244Z,99045.09
2022-10-05T03:36:40.248Z,99043.94
2022-10-05T03:39:11.497Z,99050.63
2022-10-05T03:41:46.739Z,99047.00
2022-10-05T03:44:23.731Z,99050.22
2022-10-05T03:47:00.670Z,99039.16
2022-10-05T03:49:34.123Z,99046.44
2022-10-05T03:52:05.004Z,99053.97
2022-10-05T03:54:36.060Z,99060.94
2022-10-05T03:57:09.051Z,99047.41
2022-10-05T03:59:40.264Z,99047.41
2022-10-05T04:02:13.786Z,99051.75
2022-10-05T04:04:47.326Z,99054.81
2022-10-05T04:07:23.325Z,99052.25
2022-10-05T04:09:53.660Z,99045.66
2022-10-05T04:12:25.034Z,99044.84
2022-10-05T04:14:55.561Z,99044.44
2022-10-05T04:17:32.088Z,99050.13
2022-10-05T04:20:04.008Z,99048.56
2022-10-05T04:22:36.109Z,99042.13
2022-10-05T04:25:08.956Z,99048.94
2022-10-05T04:27:39.836Z,99050.66
2022-10-05T04:30:12.564Z,99046.75
2022-10-05T04:32:44.543Z,99048.56
2022-10-05T04:35:39.974Z,99054.59
2022-10-05T04:38:17.862Z,99061.63
2022-10-05T04:40:53.269Z,99075.69
2022-10-05T04:43:28.318Z,99082.44
2022-10-05T04:46:04.671Z,99088.38
2022-10-05T04:48:50.969Z,99088.56
2022-10-05T04:51:28.557Z,99090.88
2022-10-05T04:53:59.727Z,99097.34
2022-10-05T04:56:32.039Z,99101.25
2022-10-05T04:59:15.355Z,99089.19
2022-10-05T05:01:51.138Z,99102.50
2022-10-05T05:04:26.658Z,99097.63
2022-10-05T05:07:02.450Z,99085.78
2022-10-05T05:09:55.243Z,99081.50
2022-10-05T05:12:29.360Z,99097.25
2022-10-05T05:15:06.683Z,99093.66
2022-10-05T05:17:41.984Z,99095.88
2022-10-05T05:20:18.600Z,99099.75
2022-10-05T05:22:51.791Z,99109.47
2022-10-05T05:25:24.001Z,99104.28
2022-10-05T05:27:55.426Z,99106.03
2022-10-05T05:30:33.509Z,99107.81
2022-10-05T05:33:11.170Z,99107.88
2022-10-05T05:35:48.953Z,99126.59
2022-10-05T05:38:26.417Z,99120.75
2022-10-05T05:41:00.360Z,99125.03
2022-10-05T05:43:30.520Z,99128.28
2022-10-05T05:46:00.904Z,99129.38
2022-10-05T05:48:32.745Z,99129.47
2022-10-05T05:51:02.761Z,99130.03
2022-10-05T05:53:34.924Z,99118.22
2022-10-05T05:56:09.009Z,99127.94
2022-10-05T05:58:41.002Z,99118.81
2022-10-05T06:01:30.584Z,99126.09
2022-10-05T06:04:00.820Z,99109.16
2022-10-05T06:06:32.187Z,99121.91
2022-10-05T06:09:03.749Z,99121.59
2022-10-05T06:11:41.242Z,99121.19
2022-10-05T06:14:14.585Z,99126.44
2022-10-05T06:16:46.846Z,99126.88
2022-10-05T06:19:17.502Z,99138.13
2022-10-05T06:21:51.886Z,99136.94
2022-10-05T06:24:24.785Z,99144.78
2022-10-05T06:27:03.367Z,99146.94
2022-10-05T06:29:40.834Z,99146.38
2022-10-05T06:32:14.870Z,99145.53
2022-10-05T06:34:56.892Z,99148.88
2022-10-05T06:37:33.999Z,99150.16
2022-10-05T06:40:09.246Z,99136.75
2022-10-05T06:42:43.537Z,99139.41
2022-10-05T06:45:26.210Z,99141.44
2022-10-05T06:48:17.770Z,99138.03
2022-10-05T06:51:07.239Z,99138.91
2022-10-05T06:54:04.103Z,99135.88
2022-10-05T06:56:38.292Z,99122.22
2022-10-05T06:59:10.740Z,99119.91
2022-10-05T07:01:49.158Z,99121.66
2022-10-05T07:04:25.015Z,99120.44
2022-10-05T07:06:55.847Z,99124.44
2022-10-05T07:09:36.422Z,99119.13
2022-10-05T07:12:14.804Z,99118.28
2022-10-05T07:15:02.640Z,99122.50
2022-10-05T07:17:42.475Z,99119.63
2022-10-05T07:20:15.680Z,99120.44
2022-10-05T07:23:02.748Z,99132.13
2022-10-05T07:25:36.968Z,99130.88
2022-10-05T07:28:08.593Z,99129.97
2022-10-05T07:30:41.296Z,99145.06
2022-10-05T07:33:13.953Z,99139.97
2022-10-05T07:36:06.275Z,99142.50
2022-10-05T07:38:39.161Z,99138.94
2022-10-05T07:41:08.707Z,99135.19
2022-10-05T07:44:01.493Z,99125.84
2022-10-05T07:46:38.476Z,99121.03
2022-10-05T07:49:10.508Z,99126.47
2022-10-05T07:51:40.987Z,99114.44
2022-10-05T07:54:20.039Z,99112.53
2022-10-05T07:56:55.885Z,99110.88
2022-10-05T07:59:31.261Z,99114.00
2022-10-05T08:02:05.097Z,99111.91
2022-10-05T08:04:41.808Z,99102.91
2022-10-05T08:07:12.321Z,99102.13
2022-10-05T08:09:43.061Z,99111.91
2022-10-05T08:12:17.917Z,99107.06
2022-10-05T08:14:52.669Z,99105.16
2022-10-05T08:17:25.681Z,99106.00
2022-10-05T08:19:57.415Z,99090.69
2022-10-05T08:22:30.233Z,99087.44
2022-10-05T08:25:02.909Z,99087.38
2022-10-05T08:27:35.369Z,99074.53
2022-10-05T08:30:06.614Z,99066.47
2022-10-05T08:32:37.789Z,99067.63
2022-10-05T08:35:18.885Z,99052.03
2022-10-05T08:37:47.086Z,99052.72
2022-10-05T08:40:25.587Z,99051.66
2022-10-05T08:43:08.112Z,99033.88
2022-10-05T08:45:49.075Z,99041.16
2022-10-05T08:48:44.522Z,99026.63
2022-10-05T08:51:30.051Z,99029.94
2022-10-05T08:54:14.084Z,99024.75
2022-10-05T08:56:43.654Z,99026.06
2022-10-05T08:59:19.599Z,99030.91
2022-10-05T09:02:03.627Z,99045.56
2022-10-05T09:04:43.442Z,99032.66
2022-10-05T09:07:29.320Z,99021.19
2022-10-05T09:10:20.703Z,98999.94
2022-10-05T09:13:04.003Z,99000.13
2022-10-05T09:15:43.517Z,98994.94
2022-10-05T09:18:23.984Z,99001.63
2022-10-05T09:20:52.930Z,98997.75
2022-10-05T09:23:28.923Z,98998.56
2022-10-05T09:25:58.718Z,98992.63
2022-10-05T09:28:32.191Z,98984.84
2022-10-05T09:31:12.601Z,98976.47
2022-10-05T09:33:58.645Z,98977.44
2022-10-05T09:36:36.296Z,98972.91
2022-10-05T09:39:34.502Z,98972.38
2022-10-05T09:42:17.381Z,98975.16
2022-10-05T09:45:00.911Z,98961.22
2022-10-05T09:47:41.350Z,98954.31
2022-10-05T09:50:40.763Z,98952.84
2022-10-05T09:53:23.076Z,98957.38
2022-10-05T09:56:01.224Z,98943.44
2022-10-05T09:58:49.745Z,98941.59
2022-10-05T10:01:38.784Z,98942.00
2022-10-05T10:04:12.769Z,98937.94
2022-10-05T10:07:04.996Z,98932.94
2022-10-05T10:09:40.856Z,98930.88
2022-10-05T10:12:17.954Z,98931.13
2022-10-05T10:15:06.963Z,98918.03
2022-10-05T10:17:48.949Z,98919.47
2022-10-05T10:20:27.003Z,98913.38
2022-10-05T10:23:08.517Z,98915.47
2022-10-05T10:25:51.732Z,98905.88
2022-10-05T10:28:32.074Z,98903.00
2022-10-05T10:31:18.126Z,98901.84
2022-10-05T10:34:06.984Z,98897.41
2022-10-05T10:36:47.398Z,98904.41
2022-10-05T10:39:22.379Z,98896.41
2022-10-05T10:42:10.939Z,98892.69
2022-10-05T10:44:53.815Z,98879.28
2022-10-05T10:47:52.125Z,98884.16
2022-10-05T10:50:33.121Z,98879.22
2022-10-05T10:53:13.696Z,98882.75
2022-10-05T10:55:48.345Z,98881.63
2022-10-05T10:58:35.809Z,98876.22
2022-10-05T11:01:11.061Z,98870.72
2022-10-05T11:03:56.755Z,98878.91
2022-10-05T11:06:45.934Z,98871.84
2022-10-05T11:09:25.794Z,98862.25
2022-10-05T11:12:08.651Z,98866.09
2022-10-05T11:14:51.679Z,98866.91
2022-10-05T11:17:33.299Z,98864.44
2022-10-05T11:20:16.370Z,98868.03
2022-10-05T11:23:02.321Z,98864.44
2022-10-05T11:25:44.328Z,98856.22
2022-10-05T11:28:38.786Z,98864.16
2022-10-05T11:31:24.783Z,98856.50
2022-10-05T11:34:07.902Z,98859.00
2022-10-05T11:36:46.446Z,98850.72
2022-10-05T11:39:30.232Z,98849.38
2022-10-05T11:42:27.238Z,98845.22
2022-10-05T11:45:15.027Z,98827.44
2022-10-05T11:47:49.637Z,98832.59
2022-10-05T11:50:20.064Z,98837.41
2022-10-05T11:52:51.488Z,98839.84
2022-10-05T11:55:24.919Z,98835.56
2022-10-05T11:57:55.168Z,98826.47
2022-10-05T12:00:24.143Z,98822.22
2022-10-05T12:03:12.388Z,98826.63
2022-10-05T12:05:49.700Z,98829.41
2022-10-05T12:08:29.094Z,98821.41
2022-10-05T12:11:03.409Z,98815.19
2022-10-05T12:13:37.642Z,98816.53
2022-10-05T12:16:08.730Z,98814.16
2022-10-05T12:18:47.443Z,98819.69
2022-10-05T12:21:18.841Z,98811.19
2022-10-05T12:23:50.864Z,98818.03
2022-10-05T12:26:24.360Z,98816.47
2022-10-05T12:28:54.442Z,98822.25
2022-10-05T12:31:29.638Z,98819.22
2022-10-05T12:34:03.671Z,98806.13
2022-10-05T12:36:59.219Z,98810.28
2022-10-05T12:39:27.167Z,98799.47
2022-10-05T12:42:02.887Z,98809.44
2022-10-05T12:44:43.664Z,98806.09
2022-10-05T12:47:17.886Z,98799.00
2022-10-05T12:50:06.950Z,98797.84
2022-10-05T12:52:44.255Z,98802.97
2022-10-05T12:55:16.383Z,98802.16
2022-10-05T12:57:50.093Z,98793.53
2022-10-05T13:00:22.878Z,98795.72
2022-10-05T13:02:51.920Z,98787.06
2022-10-05T13:05:24.551Z,98795.44
2022-10-05T13:08:01.360Z,98791.94
2022-10-05T13:10:35.007Z,98799.34
2022-10-05T13:13:08.867Z,98782.28
2022-10-05T13:15:42.067Z,98779.75
2022-10-05T13:18:14.826Z,98779.94
2022-10-05T13:20:45.298Z,98778.22
2022-10-05T13:23:15.568Z,98785.00
2022-10-05T13:28:19.551Z,98785.97
2022-10-05T13:30:52.758Z,98779.00
2022-10-05T13:33:25.950Z,98782.72
2022-10-05T13:35:59.846Z,98772.59
2022-10-05T13:38:34.448Z,98778.56
2022-10-05T13:41:08.086Z,98777.72
2022-10-05T13:43:43.937Z,98773.41
2022-10-05T13:46:15.316Z,98767.47
2022-10-05T13:48:49.731Z,98770.44
2022-10-05T13:51:20.085Z,98772.81
2022-10-05T13:53:49.628Z,98772.09
2022-10-05T13:56:20.723Z,98769.59
2022-10-05T13:58:52.732Z,98766.44
2022-10-05T14:01:28.112Z,98767.16
2022-10-05T14:04:15.945Z,98766.38
2022-10-05T14:06:44.288Z,98768.13
2022-10-05T14:09:14.729Z,98761.38
2022-10-05T14:11:48.857Z,98759.63
2022-10-05T14:14:25.808Z,98761.47
2022-10-05T14:16:54.835Z,98758.53
2022-10-05T14:19:26.785Z,98754.16
2022-10-05T14:21:55.939Z,98751.88
2022-10-05T14:24:43.705Z,98744.69
2022-10-05T14:27:22.523Z,98750.28
2022-10-05T14:29:56.850Z,98746.84
2022-10-05T14:32:25.323Z,98743.88
2022-10-05T14:34:59.971Z,98739.19
2022-10-05T14:37:33.471Z,98741.84
2022-10-05T14:40:03.968Z,98740.56
2022-10-05T14:42:46.250Z,98740.22
2022-10-05T14:45:18.637Z,98732.84
2022-10-05T14:47:48.557Z,98727.56
2022-10-05T14:50:17.858Z,98727.50
2022-10-05T14:52:51.944Z,98738.50
2022-10-05T14:55:30.360Z,98707.47
2022-10-05T14:58:03.882Z,98730.78
2022-10-05T15:00:36.290Z,98727.06
2022-10-05T15:03:18.583Z,98728.75
2022-10-05T15:05:49.747Z,98735.59
2022-10-05T15:08:28.465Z,98726.97
2022-10-05T15:11:01.407Z,98726.06
2022-10-05T15:13:32.102Z,98721.56
2022-10-05T15:16:05.713Z,98729.03
2022-10-05T15:18:39.333Z,98722.59
2022-10-05T15:21:21.535Z,98727.63
2022-10-05T15:23:52.901Z,98726.38
2022-10-05T15:26:28.061Z,98724.22
2022-10-05T15:28:59.786Z,98721.63
2022-10-05T15:31:32.953Z,98724.25
2022-10-05T15:34:02.343Z,98725.19
2022-10-05T15:36:36.270Z,98719.75
2022-10-05T15:39:11.168Z,98722.22
2022-10-05T15:41:52.858Z,98701.94
2022-10-05T15:44:27.716Z,98724.91
2022-10-05T15:46:59.675Z,98727.75
2022-10-05T15:49:33.064Z,98724.59
2022-10-05T15:52:04.539Z,98725.16
2022-10-05T15:54:57.236Z,98727.91
2022-10-05T15:57:26.498Z,98730.44
2022-10-05T15:59:59.077Z,98733.72
2022-10-05T16:02:31.241Z,98739.00
2022-10-05T16:05:04.911Z,98734.03
2022-10-05T16:07:53.150Z,98740.28
2022-10-05T16:10:23.311Z,98741.16
2022-10-05T16:12:58.698Z,98707.66
2022-10-05T16:15:33.240Z,98735.25
2022-10-05T16:18:09.897Z,98737.47
2022-10-05T16:20:42.300Z,98729.06
2022-10-05T16:23:13.920Z,98735.28
2022-10-05T16:25:48.055Z,98736.66
2022-10-05T16:28:23.378Z,98736.44
2022-10-05T16:30:58.726Z,98735.19
2022-10-05T16:33:32.710Z,98736.09
2022-10-05T16:36:04.711Z,98744.63
2022-10-05T16:38:38.604Z,98740.06
2022-10-05T16:41:13.659Z,98746.38
2022-10-05T16:43:49.377Z,98740.88
2022-10-05T16:46:27.557Z,98745.16
2022-10-05T16:49:02.636Z,98746.13
2022-10-05T16:51:34.803Z,98760.09
2022-10-05T16:54:11.525Z,98761.13
2022-10-05T16:56:42.093Z,98758.19
2022-10-05T16:59:32.219Z,98751.03
2022-10-05T17:02:03.884Z,98759.75
2022-10-05T17:04:39.960Z,98759.53
2022-10-05T17:07:17.035Z,98760.03
2022-10-05T17:10:03.175Z,98762.78
2022-10-05T17:12:40.282Z,98768.50
2022-10-05T17:15:15.808Z,98777.69
2022-10-05T17:17:58.694Z,98784.94
2022-10-05T17:20:41.635Z,98776.63
2022-10-05T17:23:19.371Z,98782.59
2022-10-05T17:25:53.639Z,98776.31
2022-10-05T17:28:24.105Z,98786.50
2022-10-05T17:31:08.003Z,98793.50
2022-10-05T17:33:56.273Z,98794.59
2022-10-05T17:36:37.456Z,98793.81
2022-10-05T17:39:14.404Z,98794.84
2022-10-05T17:41:42.883Z,98806.03
2022-10-05T17:44:19.313Z,98808.47
2022-10-05T17:46:48.530Z,98813.97
2022-10-05T17:49:23.631Z,98819.00
2022-10-05T17:52:17.388Z,98826.00
2022-10-05T17:55:27.473Z,98824.06
2022-10-05T17:57:58.562Z,98826.69
2022-10-05T18:00:34.869Z,98828.91
2022-10-05T18:03:28.847Z,98832.66
2022-10-05T18:06:11.684Z,98828.09
2022-10-05T18:08:41.889Z,98829.63
2022-10-05T18:11:17.073Z,98840.22
2022-10-05T18:13:50.005Z,98834.75
2022-10-05T18:16:32.979Z,98839.75
2022-10-05T18:19:01.050Z,98838.56
2022-10-05T18:21:39.957Z,98844.06
2022-10-05T18:24:28.978Z,98850.25
2022-10-05T18:27:04.853Z,98864.47
2022-10-05T18:29:59.969Z,98863.00
2022-10-05T18:32:33.040Z,98873.78
2022-10-05T18:35:04.992Z,98873.28
2022-10-05T18:37:42.071Z,98882.63
2022-10-05T18:40:21.273Z,98880.84
2022-10-05T18:42:57.107Z,98878.59
2022-10-05T18:45:27.042Z,98883.16
2022-10-05T18:48:04.137Z,98892.16
2022-10-05T18:50:34.744Z,98892.22
2022-10-05T18:53:09.152Z,98898.44
2022-10-05T18:55:40.510Z,98899.84
2022-10-05T18:58:17.940Z,98904.97
2022-10-05T19:01:03.902Z,98902.47
2022-10-05T19:03:36.329Z,98907.75
2022-10-05T19:06:13.038Z,98918.75
2022-10-05T19:08:45.820Z,98920.91
2022-10-05T19:11:19.179Z,98920.75
2022-10-05T19:13:52.139Z,98930.09
2022-10-05T19:16:35.291Z,98921.81
2022-10-05T19:19:11.050Z,98935.28
2022-10-05T19:21:45.050Z,98933.00
2022-10-05T19:24:32.286Z,98940.66
2022-10-05T19:27:02.476Z,98937.75
2022-10-05T19:29:37.624Z,98941.25
2022-10-05T19:32:08.532Z,98945.63
2022-10-05T19:34:45.281Z,98955.19
2022-10-05T19:37:21.033Z,98958.69
2022-10-05T19:39:53.544Z,98958.53
2022-10-05T19:42:27.179Z,98967.28
2022-10-05T19:45:02.613Z,98962.88
2022-10-05T19:47:43.469Z,98975.53
2022-10-05T19:50:22.017Z,98977.97
2022-10-05T19:52:51.972Z,98982.22
2022-10-05T19:55:26.240Z,98992.19
2022-10-05T19:57:55.465Z,98988.28
2022-10-05T20:00:27.946Z,98996.22
2022-10-05T20:03:09.218Z,98991.50
2022-10-05T20:05:39.759Z,98996.28
2022-10-05T20:08:08.386Z,99002.81
2022-10-05T20:10:36.458Z,99007.16
2022-10-05T20:13:08.570Z,99006.16
2022-10-05T20:15:55.274Z,99004.69
2022-10-05T20:18:54.104Z,99007.09
2022-10-05T20:21:43.052Z,99023.13
2022-10-05T20:24:12.039Z,99025.75
2022-10-05T20:27:04.837Z,99035.00
2022-10-05T20:29:35.361Z,99027.06
2022-10-05T20:32:08.633Z,99038.41
2022-10-05T20:34:37.770Z,99048.63
2022-10-05T20:37:06.477Z,99043.28
2022-10-05T20:39:34.466Z,99048.19
2022-10-05T20:42:05.149Z,99063.06
2022-10-05T20:44:33.522Z,99058.53
2022-10-05T20:47:01.628Z,99071.63
2022-10-05T20:49:36.538Z,99068.22
2022-10-05T20:52:05.673Z,99079.94
2022-10-05T20:54:33.846Z,99083.78
2022-10-05T20:57:06.490Z,99090.56
2022-10-05T20:59:34.903Z,99094.88
2022-10-05T21:02:03.799Z,99097.47
2022-10-05T21:04:40.277Z,99100.66
2022-10-05T21:07:10.715Z,99103.59
2022-10-05T21:09:42.399Z,99113.81
2022-10-05T21:12:11.058Z,99099.94
2022-10-05T21:14:40.469Z,99113.13
2022-10-05T21:17:08.479Z,99126.41
2022-10-05T21:19:40.165Z,99138.72
2022-10-05T21:22:08.630Z,99144.78
2022-10-05T21:24:38.615Z,99149.22
2022-10-05T21:27:06.798Z,99150.84
2022-10-05T21:29:35.717Z,99133.84
2022-10-05T21:32:03.851Z,99132.81
2022-10-05T21:34:31.852Z,99127.97
2022-10-05T21:36:59.844Z,99121.34
2022-10-05T21:39:27.826Z,99120.22
2022-10-05T21:41:59.511Z,99117.50
2022-10-05T21:44:27.504Z,99112.56
2022-10-05T21:46:56.209Z,99111.66
2022-10-05T21:49:24.593Z,99113.16
2022-10-05T21:51:52.943Z,99111.28
2022-10-05T21:54:22.262Z,99112.81
2022-10-05T21:56:51.778Z,99108.34
2022-10-05T22:02:38.127Z,99106.38
2022-10-05T22:05:08.707Z,99111.66
2022-10-05T22:07:36.716Z,99111.66
2022-10-05T22:10:05.683Z,99111.88
2022-10-05T22:12:33.768Z,99116.03
2022-10-05T22:15:05.224Z,99121.59
2022-10-05T22:17:33.214Z,99120.88
2022-10-05T22:20:02.639Z,99125.97
2022-10-05T22:22:30.751Z,99121.34
2022-10-05T22:24:58.759Z,99124.44
2022-10-05T22:27:28.892Z,99127.00
2022-10-05T22:29:58.830Z,99147.53
2022-10-05T22:32:26.899Z,99147.19
2022-10-05T22:34:55.272Z,99140.50
2022-10-05T22:37:24.609Z,99132.59
2022-10-05T22:39:55.061Z,99141.72
2022-10-05T22:42:23.044Z,99145.34
2022-10-05T22:44:51.010Z,99145.38
2022-10-05T22:47:19.007Z,99139.97
2022-10-05T22:49:46.985Z,99160.47
2022-10-05T22:52:14.963Z,99152.28
2022-10-05T22:54:44.314Z,99162.63
2022-10-05T22:57:12.244Z,99174.00
2022-10-05T22:59:40.284Z,99169.75
2022-10-05T23:02:08.286Z,99177.13
2022-10-05T23:04:36.348Z,99172.47
2022-10-05T23:07:04.416Z,99185.97
2022-10-05T23:09:32.383Z,99190.66
2022-10-05T23:12:03.855Z,99205.66
2022-10-05T23:14:33.150Z,99205.50
2022-10-05T23:17:01.165Z,99219.22
2022-10-05T23:19:29.151Z,99212.13
2022-10-05T23:21:57.147Z,99210.56
2022-10-05T23:24:25.100Z,99202.41
2022-10-05T23:26:53.083Z,99202.03
2022-10-05T23:29:22.416Z,99208.31
2022-10-05T23:31:50.388Z,99217.94
2022-10-05T23:34:18.387Z,99206.78
2022-10-05T23:36:46.330Z,99214.41
2022-10-05T23:39:14.338Z,99214.41
2022-10-05T23:41:44.280Z,99222.34
2022-10-05T23:44:12.443Z,99228.25
2022-10-05T23:46:41.970Z,99237.75
2022-10-05T23:49:10.312Z,99225.03
2022-10-05T23:51:40.638Z,99227.94
2022-10-05T23:54:08.622Z,99219.66
2022-10-05T23:56:36.594Z,99239.50
2022-10-05T23:59:04.546Z,99254.63
